sensor_id;sensor_type;location;lat;lon;timestamp;pressure;altitude;pressure_sealevel;temperature;humidity
31299;BME280;17927;52.350;13.402;2023-05-28T00:00:43;101798.53;;;17.71;35.12
31299;BME280;17927;52.350;13.402;2023-05-28T00:03:09;101795.94;;;17.61;35.03
31299;BME280;17927;52.350;13.402;2023-05-28T00:05:34;101799.47;;;17.54;35.27
31299;BME280;17927;52.350;13.402;2023-05-28T00:08:00;101800.28;;;17.46;35.42
31299;BME280;17927;52.350;13.402;2023-05-28T00:10:26;101795.47;;;17.40;35.60
31299;BME280;17927;52.350;13.402;2023-05-28T00:12:51;101795.13;;;17.34;35.76
31299;BME280;17927;52.350;13.402;2023-05-28T00:15:16;101795.44;;;17.31;35.98
31299;BME280;17927;52.350;13.402;2023-05-28T00:17:41;101791.31;;;17.27;35.91
31299;BME280;17927;52.350;13.402;2023-05-28T00:20:07;101797.41;;;17.21;36.14
31299;BME280;17927;52.350;13.402;2023-05-28T00:22:33;101792.31;;;17.18;36.25
31299;BME280;17927;52.350;13.402;2023-05-28T00:24:58;101793.81;;;17.12;36.27
31299;BME280;17927;52.350;13.402;2023-05-28T00:27:23;101788.81;;;17.08;36.54
31299;BME280;17927;52.350;13.402;2023-05-28T00:29:48;101783.00;;;17.02;36.71
31299;BME280;17927;52.350;13.402;2023-05-28T00:32:14;101790.78;;;16.97;36.44
31299;BME280;17927;52.350;13.402;2023-05-28T00:34:39;101782.06;;;16.94;36.71
31299;BME280;17927;52.350;13.402;2023-05-28T00:37:04;101791.38;;;16.91;36.73
31299;BME280;17927;52.350;13.402;2023-05-28T00:39:30;101786.28;;;16.88;36.73
31299;BME280;17927;52.350;13.402;2023-05-28T00:42:02;101785.00;;;16.82;37.15
31299;BME280;17927;52.350;13.402;2023-05-28T00:44:29;101779.19;;;16.77;36.94
31299;BME280;17927;52.350;13.402;2023-05-28T00:46:56;101781.41;;;16.73;37.00
31299;BME280;17927;52.350;13.402;2023-05-28T00:49:22;101780.84;;;16.70;37.24
31299;BME280;17927;52.350;13.402;2023-05-28T00:51:48;101773.13;;;16.65;37.17
31299;BME280;17927;52.350;13.402;2023-05-28T00:54:13;101780.63;;;16.63;37.36
31299;BME280;17927;52.350;13.402;2023-05-28T00:56:39;101774.09;;;16.56;37.30
31299;BME280;17927;52.350;13.402;2023-05-28T00:59:05;101774.53;;;16.51;37.43
31299;BME280;17927;52.350;13.402;2023-05-28T01:01:31;101777.63;;;16.48;37.75
31299;BME280;17927;52.350;13.402;2023-05-28T01:03:56;101780.47;;;16.47;37.66
31299;BME280;17927;52.350;13.402;2023-05-28T01:06:23;101769.88;;;16.43;37.61
31299;BME280;17927;52.350;13.402;2023-05-28T01:08:49;101765.59;;;16.41;37.79
31299;BME280;17927;52.350;13.402;2023-05-28T01:11:17;101771.38;;;16.38;37.87
31299;BME280;17927;52.350;13.402;2023-05-28T01:13:44;101770.28;;;16.31;38.19
31299;BME280;17927;52.350;13.402;2023-05-28T01:16:10;101764.59;;;16.24;38.28
31299;BME280;17927;52.350;13.402;2023-05-28T01:18:36;101766.94;;;16.19;38.39
31299;BME280;17927;52.350;13.402;2023-05-28T01:21:05;101766.41;;;16.15;38.28
31299;BME280;17927;52.350;13.402;2023-05-28T01:23:38;101769.25;;;16.13;38.72
31299;BME280;17927;52.350;13.402;2023-05-28T01:26:04;101766.69;;;16.12;38.55
31299;BME280;17927;52.350;13.402;2023-05-28T01:28:29;101767.88;;;16.09;38.67
31299;BME280;17927;52.350;13.402;2023-05-28T01:30:55;101766.47;;;16.05;38.70
31299;BME280;17927;52.350;13.402;2023-05-28T01:33:20;101767.78;;;16.01;38.63
31299;BME280;17927;52.350;13.402;2023-05-28T01:35:47;101765.34;;;15.98;38.94
31299;BME280;17927;52.350;13.402;2023-05-28T01:38:15;101759.22;;;15.96;39.23
31299;BME280;17927;52.350;13.402;2023-05-28T01:40:43;101759.38;;;15.94;39.15
31299;BME280;17927;52.350;13.402;2023-05-28T01:43:10;101765.69;;;15.95;39.04
31299;BME280;17927;52.350;13.402;2023-05-28T01:45:35;101763.81;;;15.95;39.10
31299;BME280;17927;52.350;13.402;2023-05-28T01:48:01;101761.25;;;15.94;39.08
31299;BME280;17927;52.350;13.402;2023-05-28T01:50:27;101763.97;;;15.94;39.38
31299;BME280;17927;52.350;13.402;2023-05-28T01:52:53;101766.84;;;15.92;39.30
31299;BME280;17927;52.350;13.402;2023-05-28T01:55:19;101762.72;;;15.88;39.29
31299;BME280;17927;52.350;13.402;2023-05-28T01:57:44;101759.56;;;15.83;39.12
31299;BME280;17927;52.350;13.402;2023-05-28T02:00:10;101754.56;;;15.78;39.46
31299;BME280;17927;52.350;13.402;2023-05-28T02:02:35;101759.78;;;15.72;39.60
31299;BME280;17927;52.350;13.402;2023-05-28T02:05:01;101752.03;;;15.67;39.62
31299;BME280;17927;52.350;13.402;2023-05-28T02:07:26;101755.22;;;15.62;39.88
31299;BME280;17927;52.350;13.402;2023-05-28T02:09:52;101761.13;;;15.58;39.90
31299;BME280;17927;52.350;13.402;2023-05-28T02:12:17;101760.72;;;15.52;39.98
31299;BME280;17927;52.350;13.402;2023-05-28T02:14:46;101753.88;;;15.48;39.98
31299;BME280;17927;52.350;13.402;2023-05-28T02:17:11;101757.91;;;15.44;39.93
31299;BME280;17927;52.350;13.402;2023-05-28T02:19:37;101750.34;;;15.38;40.08
31299;BME280;17927;52.350;13.402;2023-05-28T02:22:03;101749.06;;;15.32;39.91
31299;BME280;17927;52.350;13.402;2023-05-28T02:24:37;101752.38;;;15.26;40.06
31299;BME280;17927;52.350;13.402;2023-05-28T02:27:02;101744.66;;;15.21;40.07
31299;BME280;17927;52.350;13.402;2023-05-28T02:29:29;101744.84;;;15.20;40.03
31299;BME280;17927;52.350;13.402;2023-05-28T02:31:54;101752.28;;;15.18;40.32
31299;BME280;17927;52.350;13.402;2023-05-28T02:34:19;101749.16;;;15.13;40.40
31299;BME280;17927;52.350;13.402;2023-05-28T02:36:45;101751.16;;;15.11;40.22
31299;BME280;17927;52.350;13.402;2023-05-28T02:39:10;101749.03;;;15.04;40.21
31299;BME280;17927;52.350;13.402;2023-05-28T02:41:35;101751.22;;;15.01;40.72
31299;BME280;17927;52.350;13.402;2023-05-28T02:44:01;101748.78;;;14.98;40.52
31299;BME280;17927;52.350;13.402;2023-05-28T02:46:26;101748.34;;;14.92;40.54
31299;BME280;17927;52.350;13.402;2023-05-28T02:48:51;101753.38;;;14.87;40.42
31299;BME280;17927;52.350;13.402;2023-05-28T02:51:16;101755.53;;;14.84;40.41
31299;BME280;17927;52.350;13.402;2023-05-28T02:53:42;101747.81;;;14.79;40.39
31299;BME280;17927;52.350;13.402;2023-05-28T02:56:07;101753.72;;;14.74;40.40
31299;BME280;17927;52.350;13.402;2023-05-28T02:58:32;101756.88;;;14.70;40.70
31299;BME280;17927;52.350;13.402;2023-05-28T03:00:57;101753.53;;;14.66;40.73
31299;BME280;17927;52.350;13.402;2023-05-28T03:03:26;101762.13;;;14.61;41.01
31299;BME280;17927;52.350;13.402;2023-05-28T03:05:51;101759.41;;;14.61;40.87
31299;BME280;17927;52.350;13.402;2023-05-28T03:08:17;101764.13;;;14.59;40.91
31299;BME280;17927;52.350;13.402;2023-05-28T03:10:42;101754.56;;;14.55;40.67
31299;BME280;17927;52.350;13.402;2023-05-28T03:13:08;101761.28;;;14.51;40.74
31299;BME280;17927;52.350;13.402;2023-05-28T03:15:33;101758.00;;;14.48;40.77
31299;BME280;17927;52.350;13.402;2023-05-28T03:17:58;101757.28;;;14.45;41.01
31299;BME280;17927;52.350;13.402;2023-05-28T03:20:24;101756.84;;;14.40;40.75
31299;BME280;17927;52.350;13.402;2023-05-28T03:22:55;101754.28;;;14.39;41.22
31299;BME280;17927;52.350;13.402;2023-05-28T03:25:20;101746.69;;;14.32;40.89
31299;BME280;17927;52.350;13.402;2023-05-28T03:27:45;101761.28;;;14.31;41.07
31299;BME280;17927;52.350;13.402;2023-05-28T03:30:11;101753.28;;;14.30;41.36
31299;BME280;17927;52.350;13.402;2023-05-28T03:32:36;101747.13;;;14.28;41.21
31299;BME280;17927;52.350;13.402;2023-05-28T03:35:02;101747.25;;;14.26;41.01
31299;BME280;17927;52.350;13.402;2023-05-28T03:37:27;101744.84;;;14.23;41.57
31299;BME280;17927;52.350;13.402;2023-05-28T03:39:53;101746.56;;;14.24;41.33
31299;BME280;17927;52.350;13.402;2023-05-28T03:42:18;101746.56;;;14.24;41.79
31299;BME280;17927;52.350;13.402;2023-05-28T03:44:44;101749.13;;;14.26;41.80
31299;BME280;17927;52.350;13.402;2023-05-28T03:47:09;101741.69;;;14.28;41.82
31299;BME280;17927;52.350;13.402;2023-05-28T03:49:34;101736.84;;;14.31;41.82
31299;BME280;17927;52.350;13.402;2023-05-28T03:52:01;101746.69;;;14.32;42.14
31299;BME280;17927;52.350;13.402;2023-05-28T03:54:26;101742.09;;;14.33;42.34
31299;BME280;17927;52.350;13.402;2023-05-28T03:56:51;101751.84;;;14.36;42.33
31299;BME280;17927;52.350;13.402;2023-05-28T03:59:16;101745.25;;;14.38;42.31
31299;BME280;17927;52.350;13.402;2023-05-28T04:01:42;101758.72;;;14.40;42.33
31299;BME280;17927;52.350;13.402;2023-05-28T04:04:07;101750.25;;;14.43;42.44
31299;BME280;17927;52.350;13.402;2023-05-28T04:06:32;101750.13;;;14.44;42.32
31299;BME280;17927;52.350;13.402;2023-05-28T04:08:58;101753.25;;;14.50;42.62
31299;BME280;17927;52.350;13.402;2023-05-28T04:11:23;101743.81;;;14.54;42.88
31299;BME280;17927;52.350;13.402;2023-05-28T04:13:50;101741.25;;;14.62;42.92
31299;BME280;17927;52.350;13.402;2023-05-28T04:16:16;101743.28;;;14.70;42.93
31299;BME280;17927;52.350;13.402;2023-05-28T04:18:41;101742.38;;;14.79;43.27
31299;BME280;17927;52.350;13.402;2023-05-28T04:21:06;101753.53;;;14.86;43.13
31299;BME280;17927;52.350;13.402;2023-05-28T04:23:32;101748.22;;;14.94;43.25
31299;BME280;17927;52.350;13.402;2023-05-28T04:25:57;101744.91;;;15.00;43.33
31299;BME280;17927;52.350;13.402;2023-05-28T04:28:22;101747.59;;;15.10;43.54
31299;BME280;17927;52.350;13.402;2023-05-28T04:30:53;101752.13;;;15.19;43.76
31299;BME280;17927;52.350;13.402;2023-05-28T04:33:19;101751.09;;;15.30;43.45
31299;BME280;17927;52.350;13.402;2023-05-28T04:35:46;101743.75;;;15.41;43.60
31299;BME280;17927;52.350;13.402;2023-05-28T04:38:11;101750.00;;;15.51;43.77
31299;BME280;17927;52.350;13.402;2023-05-28T04:40:37;101746.06;;;15.63;43.82
31299;BME280;17927;52.350;13.402;2023-05-28T04:43:02;101752.28;;;15.74;43.89
31299;BME280;17927;52.350;13.402;2023-05-28T04:45:28;101745.94;;;15.83;43.87
31299;BME280;17927;52.350;13.402;2023-05-28T04:47:53;101752.06;;;15.95;43.64
31299;BME280;17927;52.350;13.402;2023-05-28T04:50:18;101750.97;;;16.06;43.93
31299;BME280;17927;52.350;13.402;2023-05-28T04:52:44;101746.13;;;16.18;43.86
31299;BME280;17927;52.350;13.402;2023-05-28T04:55:09;101750.50;;;16.28;43.86
31299;BME280;17927;52.350;13.402;2023-05-28T04:57:36;101753.16;;;16.38;43.87
31299;BME280;17927;52.350;13.402;2023-05-28T05:00:02;101752.19;;;16.48;43.79
31299;BME280;17927;52.350;13.402;2023-05-28T05:02:28;101757.38;;;16.59;44.01
31299;BME280;17927;52.350;13.402;2023-05-28T05:04:53;101754.56;;;16.69;43.88
31299;BME280;17927;52.350;13.402;2023-05-28T05:07:19;101753.47;;;16.80;43.63
31299;BME280;17927;52.350;13.402;2023-05-28T05:09:45;101752.34;;;16.90;43.69
31299;BME280;17927;52.350;13.402;2023-05-28T05:12:11;101753.13;;;17.01;43.39
31299;BME280;17927;52.350;13.402;2023-05-28T05:14:36;101756.44;;;17.13;43.42
31299;BME280;17927;52.350;13.402;2023-05-28T05:17:02;101753.25;;;17.26;43.18
31299;BME280;17927;52.350;13.402;2023-05-28T05:19:28;101751.25;;;17.36;43.27
31299;BME280;17927;52.350;13.402;2023-05-28T05:21:53;101749.09;;;17.48;43.42
31299;BME280;17927;52.350;13.402;2023-05-28T05:24:20;101747.94;;;17.59;42.91
31299;BME280;17927;52.350;13.402;2023-05-28T05:26:45;101755.84;;;17.70;43.02
31299;BME280;17927;52.350;13.402;2023-05-28T05:29:11;101743.88;;;17.79;42.74
31299;BME280;17927;52.350;13.402;2023-05-28T05:31:36;101744.63;;;17.90;42.84
31299;BME280;17927;52.350;13.402;2023-05-28T05:34:01;101754.25;;;18.02;43.08
31299;BME280;17927;52.350;13.402;2023-05-28T05:36:26;101746.91;;;18.11;42.58
31299;BME280;17927;52.350;13.402;2023-05-28T05:38:52;101734.94;;;18.20;42.51
31299;BME280;17927;52.350;13.402;2023-05-28T05:41:17;101729.31;;;18.30;42.44
31299;BME280;17927;52.350;13.402;2023-05-28T05:43:42;101740.91;;;18.40;42.29
31299;BME280;17927;52.350;13.402;2023-05-28T05:46:08;101744.34;;;18.51;42.01
31299;BME280;17927;52.350;13.402;2023-05-28T05:48:33;101740.56;;;18.60;41.83
31299;BME280;17927;52.350;13.402;2023-05-28T05:50:58;101741.25;;;18.70;41.66
31299;BME280;17927;52.350;13.402;2023-05-28T05:53:26;101742.78;;;18.81;41.59
31299;BME280;17927;52.350;13.402;2023-05-28T05:55:51;101745.50;;;18.90;41.55
31299;BME280;17927;52.350;13.402;2023-05-28T05:58:16;101747.22;;;18.99;41.57
31299;BME280;17927;52.350;13.402;2023-05-28T06:00:42;101748.91;;;19.08;41.50
31299;BME280;17927;52.350;13.402;2023-05-28T06:03:07;101752.13;;;19.20;41.12
31299;BME280;17927;52.350;13.402;2023-05-28T06:05:33;101743.69;;;19.30;41.08
31299;BME280;17927;52.350;13.402;2023-05-28T06:07:59;101748.78;;;19.41;40.73
31299;BME280;17927;52.350;13.402;2023-05-28T06:10:24;101750.28;;;19.52;40.55
31299;BME280;17927;52.350;13.402;2023-05-28T06:12:49;101739.13;;;19.62;40.47
31299;BME280;17927;52.350;13.402;2023-05-28T06:15:14;101748.16;;;19.71;40.30
31299;BME280;17927;52.350;13.402;2023-05-28T06:17:40;101738.66;;;19.82;40.18
31299;BME280;17927;52.350;13.402;2023-05-28T06:20:07;101743.75;;;19.93;40.78
31299;BME280;17927;52.350;13.402;2023-05-28T06:22:32;101746.28;;;20.03;40.56
31299;BME280;17927;52.350;13.402;2023-05-28T06:24:57;101739.69;;;20.12;40.31
31299;BME280;17927;52.350;13.402;2023-05-28T06:27:23;101737.56;;;20.22;39.91
31299;BME280;17927;52.350;13.402;2023-05-28T06:29:48;101737.97;;;20.34;40.20
31299;BME280;17927;52.350;13.402;2023-05-28T06:32:13;101738.59;;;20.45;40.50
31299;BME280;17927;52.350;13.402;2023-05-28T06:34:39;101749.31;;;20.54;39.90
31299;BME280;17927;52.350;13.402;2023-05-28T06:37:04;101744.41;;;20.65;40.51
31299;BME280;17927;52.350;13.402;2023-05-28T06:39:30;101745.00;;;20.75;40.14
31299;BME280;17927;52.350;13.402;2023-05-28T06:41:55;101741.16;;;20.84;40.22
31299;BME280;17927;52.350;13.402;2023-05-28T06:44:20;101740.22;;;20.92;39.58
31299;BME280;17927;52.350;13.402;2023-05-28T06:46:46;101744.56;;;21.02;39.54
31299;BME280;17927;52.350;13.402;2023-05-28T06:49:11;101747.22;;;21.10;39.05
31299;BME280;17927;52.350;13.402;2023-05-28T06:51:37;101738.91;;;21.18;38.63
31299;BME280;17927;52.350;13.402;2023-05-28T06:54:02;101742.41;;;21.27;37.93
31299;BME280;17927;52.350;13.402;2023-05-28T06:56:27;101737.66;;;21.36;37.86
31299;BME280;17927;52.350;13.402;2023-05-28T06:58:53;101737.53;;;21.44;37.37
31299;BME280;17927;52.350;13.402;2023-05-28T07:01:19;101741.91;;;21.53;37.20
31299;BME280;17927;52.350;13.402;2023-05-28T07:03:45;101741.81;;;21.62;37.63
31299;BME280;17927;52.350;13.402;2023-05-28T07:06:10;101747.66;;;21.73;37.74
31299;BME280;17927;52.350;13.402;2023-05-28T07:08:35;101747.53;;;21.82;37.19
31299;BME280;17927;52.350;13.402;2023-05-28T07:11:01;101741.06;;;21.89;36.56
31299;BME280;17927;52.350;13.402;2023-05-28T07:13:26;101735.47;;;21.98;36.70
31299;BME280;17927;52.350;13.402;2023-05-28T07:15:51;101731.72;;;22.05;36.15
31299;BME280;17927;52.350;13.402;2023-05-28T07:18:16;101726.97;;;22.14;35.68
31299;BME280;17927;52.350;13.402;2023-05-28T07:20:42;101733.34;;;22.21;35.26
31299;BME280;17927;52.350;13.402;2023-05-28T07:23:07;101734.28;;;22.29;35.18
31299;BME280;17927;52.350;13.402;2023-05-28T07:25:32;101721.25;;;22.38;35.33
31299;BME280;17927;52.350;13.402;2023-05-28T07:27:57;101723.03;;;22.45;34.45
31299;BME280;17927;52.350;13.402;2023-05-28T07:30:23;101724.56;;;22.55;34.75
31299;BME280;17927;52.350;13.402;2023-05-28T07:32:48;101717.25;;;22.62;34.36
31299;BME280;17927;52.350;13.402;2023-05-28T07:35:13;101720.88;;;22.69;34.52
31299;BME280;17927;52.350;13.402;2023-05-28T07:37:38;101720.75;;;22.77;33.72
31299;BME280;17927;52.350;13.402;2023-05-28T07:40:05;101722.66;;;22.84;33.94
31299;BME280;17927;52.350;13.402;2023-05-28T07:42:30;101723.75;;;22.89;33.89
31299;BME280;17927;52.350;13.402;2023-05-28T07:44:55;101723.84;;;22.96;33.92
31299;BME280;17927;52.350;13.402;2023-05-28T07:47:21;101727.47;;;23.03;33.70
31299;BME280;17927;52.350;13.402;2023-05-28T07:49:46;101731.13;;;23.10;33.24
31299;BME280;17927;52.350;13.402;2023-05-28T07:52:11;101734.75;;;23.18;33.03
31299;BME280;17927;52.350;13.402;2023-05-28T07:54:36;101725.91;;;23.22;32.73
31299;BME280;17927;52.350;13.402;2023-05-28T07:57:04;101715.78;;;23.30;32.23
31299;BME280;17927;52.350;13.402;2023-05-28T07:59:29;101717.69;;;23.36;32.06
31299;BME280;17927;52.350;13.402;2023-05-28T08:01:55;101726.00;;;23.42;31.41
31299;BME280;17927;52.350;13.402;2023-05-28T08:04:20;101723.47;;;23.48;31.39
31299;BME280;17927;52.350;13.402;2023-05-28T08:06:47;101720.97;;;23.53;31.10
31299;BME280;17927;52.350;13.402;2023-05-28T08:09:13;101712.28;;;23.56;31.10
31299;BME280;17927;52.350;13.402;2023-05-28T08:11:42;101709.09;;;23.59;31.25
31299;BME280;17927;52.350;13.402;2023-05-28T08:14:07;101720.34;;;23.64;31.39
31299;BME280;17927;52.350;13.402;2023-05-28T08:16:33;101713.16;;;23.70;31.02
31299;BME280;17927;52.350;13.402;2023-05-28T08:18:58;101722.94;;;23.72;30.86
31299;BME280;17927;52.350;13.402;2023-05-28T08:21:23;101707.88;;;23.75;30.63
31299;BME280;17927;52.350;13.402;2023-05-28T08:23:48;101698.97;;;23.80;30.47
31299;BME280;17927;52.350;13.402;2023-05-28T08:26:14;101696.44;;;23.85;30.47
31299;BME280;17927;52.350;13.402;2023-05-28T08:28:39;101698.34;;;23.91;30.07
31299;BME280;17927;52.350;13.402;2023-05-28T08:31:04;101702.63;;;23.94;29.89
31299;BME280;17927;52.350;13.402;2023-05-28T08:33:29;101696.50;;;23.98;29.77
31299;BME280;17927;52.350;13.402;2023-05-28T08:35:55;101707.75;;;24.04;29.45
31299;BME280;17927;52.350;13.402;2023-05-28T08:38:20;101709.03;;;24.08;29.24
31299;BME280;17927;52.350;13.402;2023-05-28T08:40:49;101703.94;;;24.11;28.62
31299;BME280;17927;52.350;13.402;2023-05-28T08:43:15;101708.84;;;24.16;29.33
31299;BME280;17927;52.350;13.402;2023-05-28T08:45:41;101695.44;;;24.20;29.47
31299;BME280;17927;52.350;13.402;2023-05-28T08:48:07;101698.44;;;24.25;29.01
31299;BME280;17927;52.350;13.402;2023-05-28T08:50:35;101695.03;;;24.29;29.21
31299;BME280;17927;52.350;13.402;2023-05-28T08:53:02;101686.97;;;24.35;29.65
31299;BME280;17927;52.350;13.402;2023-05-28T08:55:29;101700.97;;;24.40;29.16
31299;BME280;17927;52.350;13.402;2023-05-28T08:57:55;101695.66;;;24.45;28.71
31299;BME280;17927;52.350;13.402;2023-05-28T09:00:20;101699.47;;;24.51;28.76
31299;BME280;17927;52.350;13.402;2023-05-28T09:02:46;101688.00;;;24.54;28.42
31299;BME280;17927;52.350;13.402;2023-05-28T09:05:12;101687.59;;;24.57;28.39
31299;BME280;17927;52.350;13.402;2023-05-28T09:07:37;101680.34;;;24.62;28.28
31299;BME280;17927;52.350;13.402;2023-05-28T09:10:03;101689.69;;;24.68;28.55
31299;BME280;17927;52.350;13.402;2023-05-28T09:12:28;101692.91;;;24.72;28.33
31299;BME280;17927;52.350;13.402;2023-05-28T09:14:54;101690.34;;;24.77;28.17
31299;BME280;17927;52.350;13.402;2023-05-28T09:17:34;101678.66;;;24.82;26.97
31299;BME280;17927;52.350;13.402;2023-05-28T09:19:59;101685.03;;;24.82;27.57
31299;BME280;17927;52.350;13.402;2023-05-28T09:22:27;101682.69;;;24.86;27.05
31299;BME280;17927;52.350;13.402;2023-05-28T09:24:53;101680.56;;;24.88;27.33
31299;BME280;17927;52.350;13.402;2023-05-28T09:27:18;101674.59;;;24.91;27.42
31299;BME280;17927;52.350;13.402;2023-05-28T09:29:44;101678.59;;;24.95;27.46
31299;BME280;17927;52.350;13.402;2023-05-28T09:32:09;101668.00;;;24.99;27.65
31299;BME280;17927;52.350;13.402;2023-05-28T09:34:41;101667.34;;;25.03;27.29
31299;BME280;17927;52.350;13.402;2023-05-28T09:37:06;101659.44;;;25.07;27.27
31299;BME280;17927;52.350;13.402;2023-05-28T09:39:32;101664.31;;;25.12;27.44
31299;BME280;17927;52.350;13.402;2023-05-28T09:42:02;101663.03;;;25.14;27.51
31299;BME280;17927;52.350;13.402;2023-05-28T09:44:40;101658.97;;;25.17;27.94
31299;BME280;17927;52.350;13.402;2023-05-28T09:47:15;101661.09;;;25.21;28.03
31299;BME280;17927;52.350;13.402;2023-05-28T09:49:46;101652.56;;;25.23;27.34
31299;BME280;17927;52.350;13.402;2023-05-28T09:52:16;101648.53;;;25.26;27.38
31299;BME280;17927;52.350;13.402;2023-05-28T09:54:45;101640.41;;;25.31;27.04
31299;BME280;17927;52.350;13.402;2023-05-28T09:57:15;101642.28;;;25.37;26.61
31299;BME280;17927;52.350;13.402;2023-05-28T09:59:43;101644.44;;;25.42;26.15
31299;BME280;17927;52.350;13.402;2023-05-28T10:02:32;101639.09;;;25.47;25.99
31299;BME280;17927;52.350;13.402;2023-05-28T10:05:02;101642.69;;;25.47;26.44
31299;BME280;17927;52.350;13.402;2023-05-28T10:07:32;101649.72;;;25.50;26.60
31299;BME280;17927;52.350;13.402;2023-05-28T10:10:00;101645.84;;;25.58;26.66
31299;BME280;17927;52.350;13.402;2023-05-28T10:12:28;101642.63;;;25.61;26.30
31299;BME280;17927;52.350;13.402;2023-05-28T10:14:55;101635.56;;;25.65;26.46
31299;BME280;17927;52.350;13.402;2023-05-28T10:17:20;101638.53;;;25.70;26.45
31299;BME280;17927;52.350;13.402;2023-05-28T10:19:46;101637.00;;;25.74;26.16
31299;BME280;17927;52.350;13.402;2023-05-28T10:22:13;101634.63;;;25.78;25.59
31299;BME280;17927;52.350;13.402;2023-05-28T10:24:38;101631.63;;;25.79;26.19
31299;BME280;17927;52.350;13.402;2023-05-28T10:27:05;101623.13;;;25.81;26.18
31299;BME280;17927;52.350;13.402;2023-05-28T10:29:42;101625.44;;;25.84;26.32
31299;BME280;17927;52.350;13.402;2023-05-28T10:32:08;101624.97;;;25.87;26.52
31299;BME280;17927;52.350;13.402;2023-05-28T10:34:35;101623.22;;;25.93;26.19
31299;BME280;17927;52.350;13.402;2023-05-28T10:37:02;101623.41;;;25.98;26.32
31299;BME280;17927;52.350;13.402;2023-05-28T10:39:44;101624.41;;;26.04;26.25
31299;BME280;17927;52.350;13.402;2023-05-28T10:42:17;101612.06;;;26.06;26.67
31299;BME280;17927;52.350;13.402;2023-05-28T10:47:36;101610.50;;;26.17;26.55
31299;BME280;17927;52.350;13.402;2023-05-28T10:52:32;101618.28;;;26.27;25.99
31299;BME280;17927;52.350;13.402;2023-05-28T10:55:01;101621.63;;;26.36;26.46
31299;BME280;17927;52.350;13.402;2023-05-28T10:57:39;101617.06;;;26.41;26.96
31299;BME280;17927;52.350;13.402;2023-05-28T11:00:06;101622.53;;;26.48;26.61
31299;BME280;17927;52.350;13.402;2023-05-28T11:02:38;101624.16;;;26.56;26.37
31299;BME280;17927;52.350;13.402;2023-05-28T11:05:04;101622.19;;;26.63;26.21
31299;BME280;17927;52.350;13.402;2023-05-28T11:07:37;101622.13;;;26.70;25.98
31299;BME280;17927;52.350;13.402;2023-05-28T11:10:05;101617.56;;;26.75;25.99
31299;BME280;17927;52.350;13.402;2023-05-28T11:12:31;101621.16;;;26.83;25.36
31299;BME280;17927;52.350;13.402;2023-05-28T11:14:57;101613.22;;;26.86;25.94
31299;BME280;17927;52.350;13.402;2023-05-28T11:17:22;101610.38;;;26.93;26.58
31299;BME280;17927;52.350;13.402;2023-05-28T11:19:51;101613.66;;;27.02;27.10
31299;BME280;17927;52.350;13.402;2023-05-28T11:22:18;101604.81;;;27.12;26.32
31299;BME280;17927;52.350;13.402;2023-05-28T11:24:58;101613.41;;;27.22;25.26
31299;BME280;17927;52.350;13.402;2023-05-28T11:27:27;101606.31;;;27.26;25.62
31299;BME280;17927;52.350;13.402;2023-05-28T11:29:59;101607.03;;;27.33;25.54
31299;BME280;17927;52.350;13.402;2023-05-28T11:32:26;101604.22;;;27.40;25.51
31299;BME280;17927;52.350;13.402;2023-05-28T11:34:53;101609.91;;;27.45;25.42
31299;BME280;17927;52.350;13.402;2023-05-28T11:37:26;101595.72;;;27.54;25.83
31299;BME280;17927;52.350;13.402;2023-05-28T11:39:53;101600.06;;;27.61;25.82
31299;BME280;17927;52.350;13.402;2023-05-28T11:42:19;101602.28;;;27.71;25.34
31299;BME280;17927;52.350;13.402;2023-05-28T11:44:45;101600.47;;;27.77;25.07
31299;BME280;17927;52.350;13.402;2023-05-28T11:47:14;101588.41;;;27.83;24.93
31299;BME280;17927;52.350;13.402;2023-05-28T11:49:40;101595.53;;;27.91;24.77
31299;BME280;17927;52.350;13.402;2023-05-28T11:52:12;101588.78;;;27.99;24.28
31299;BME280;17927;52.350;13.402;2023-05-28T11:54:39;101579.50;;;28.05;24.25
31299;BME280;17927;52.350;13.402;2023-05-28T11:57:07;101582.19;;;28.11;23.96
31299;BME280;17927;52.350;13.402;2023-05-28T11:59:32;101590.41;;;28.18;23.90
31299;BME280;17927;52.350;13.402;2023-05-28T12:02:14;101578.56;;;28.23;23.24
31299;BME280;17927;52.350;13.402;2023-05-28T12:05:02;101572.53;;;28.26;24.11
31299;BME280;17927;52.350;13.402;2023-05-28T12:07:35;101567.09;;;28.31;24.06
31299;BME280;17927;52.350;13.402;2023-05-28T12:10:05;101574.22;;;28.39;24.31
31299;BME280;17927;52.350;13.402;2023-05-28T12:12:30;101564.06;;;28.45;24.13
31299;BME280;17927;52.350;13.402;2023-05-28T12:15:01;101556.19;;;28.53;24.23
31299;BME280;17927;52.350;13.402;2023-05-28T12:17:26;101555.56;;;28.63;24.53
31299;BME280;17927;52.350;13.402;2023-05-28T12:19:53;101560.50;;;28.73;24.17
31299;BME280;17927;52.350;13.402;2023-05-28T12:22:18;101561.81;;;28.82;24.13
31299;BME280;17927;52.350;13.402;2023-05-28T12:24:50;101547.38;;;28.97;24.54
31299;BME280;17927;52.350;13.402;2023-05-28T12:27:16;101548.88;;;29.17;25.30
31299;BME280;17927;52.350;13.402;2023-05-28T12:29:43;101541.69;;;29.50;24.94
31299;BME280;17927;52.350;13.402;2023-05-28T12:32:08;101551.50;;;29.87;24.29
31299;BME280;17927;52.350;13.402;2023-05-28T12:34:34;101546.00;;;30.26;23.94
31299;BME280;17927;52.350;13.402;2023-05-28T12:36:59;101543.25;;;30.71;23.08
31299;BME280;17927;52.350;13.402;2023-05-28T12:39:24;101546.00;;;31.15;22.62
31299;BME280;17927;52.350;13.402;2023-05-28T12:41:50;101540.56;;;31.63;22.69